Time;durP1;ratioP1;P1;durP2;ratioP2;P2;SDS_P1;SDS_P2;PMS_P1;PMS_P2;Temp;Humidity;BMP_temperature;BMP_pressure;BME280_temperature;BME280_humidity;BME280_pressure;Samples;Min_cycle;Max_cycle;Signal;HPM_P1;HPM_P2
2021/07/15 00:02:20;;;;;;;82.30;45.53;;;19.20;99.50;;;;;;5006116;28;20510;-51
2021/07/15 00:04:49;;;;;;;90.00;46.53;;;19.20;99.60;;;;;;5012593;28;20522;-53
2021/07/15 00:07:16;;;;;;;75.18;42.22;;;19.20;99.70;;;;;;5018054;28;20038;-50
2021/07/15 00:09:43;;;;;;;83.30;45.92;;;19.20;99.90;;;;;;5010025;28;20108;-53
2021/07/15 00:12:13;;;;;;;119.53;51.85;;;19.20;99.80;;;;;;5012281;28;20049;-52
2021/07/15 00:14:39;;;;;;;82.72;46.85;;;19.20;99.90;;;;;;5009992;28;20043;-53
2021/07/15 00:17:06;;;;;;;91.45;48.80;;;19.20;99.90;;;;;;5011886;28;20504;-53
2021/07/15 00:19:33;;;;;;;93.07;48.05;;;19.20;99.90;;;;;;5008974;28;20552;-50
2021/07/15 00:22:00;;;;;;;85.03;48.35;;;19.20;99.90;;;;;;5011485;28;20818;-50
2021/07/15 00:24:27;;;;;;;77.32;44.33;;;19.20;99.90;;;;;;5011177;28;20343;-52
2021/07/15 00:26:54;;;;;;;80.13;46.28;;;19.20;99.90;;;;;;4994693;28;20057;-53
2021/07/15 00:29:22;;;;;;;91.22;47.65;;;19.20;99.90;;;;;;5011238;28;20072;-53
2021/07/15 00:31:50;;;;;;;76.82;45.38;;;19.10;99.90;;;;;;5005270;28;20065;-52
2021/07/15 00:34:16;;;;;;;67.45;42.20;;;19.20;99.90;;;;;;4985846;28;20100;-53
2021/07/15 00:36:41;;;;;;;63.65;41.60;;;19.30;99.90;;;;;;5011063;28;20363;-53
2021/07/15 00:39:08;;;;;;;65.07;42.25;;;19.30;99.90;;;;;;5011316;28;20069;-54
2021/07/15 00:41:34;;;;;;;62.33;40.70;;;19.20;99.80;;;;;;5010189;28;20049;-53
2021/07/15 00:44:01;;;;;;;57.67;40.38;;;19.20;99.90;;;;;;5011087;28;20557;-53
2021/07/15 00:46:27;;;;;;;68.60;40.22;;;19.10;99.90;;;;;;5009280;28;20136;-53
2021/07/15 00:48:52;;;;;;;65.55;41.63;;;19.10;99.90;;;;;;5016154;28;20467;-53
2021/07/15 00:51:20;;;;;;;62.25;39.05;;;19.10;99.90;;;;;;5011824;28;20069;-52
2021/07/15 00:53:47;;;;;;;62.08;40.47;;;19.20;99.90;;;;;;4993533;28;20048;-52
2021/07/15 00:56:14;;;;;;;62.28;39.95;;;19.20;99.90;;;;;;4993299;28;20556;-53
2021/07/15 00:58:40;;;;;;;58.92;40.83;;;19.20;99.90;;;;;;5010125;28;20499;-53
2021/07/15 01:01:09;;;;;;;57.97;38.75;;;19.20;99.90;;;;;;5011775;28;20457;-52
2021/07/15 01:03:36;;;;;;;64.35;40.65;;;19.20;99.90;;;;;;5010399;28;20045;-53
2021/07/15 01:06:02;;;;;;;59.60;38.13;;;19.20;99.90;;;;;;5009942;28;20042;-55
2021/07/15 01:08:28;;;;;;;60.70;39.22;;;19.20;99.90;;;;;;5009710;28;20112;-54
2021/07/15 01:11:19;;;;;;;58.42;38.30;;;19.20;99.90;;;;;;5010270;28;20045;-55
2021/07/15 01:13:49;;;;;;;60.03;38.17;;;19.20;99.90;;;;;;4974644;28;20406;-54
2021/07/15 01:16:28;;;;;;;51.30;34.30;;;19.20;99.90;;;;;;5010710;28;20038;-54
2021/07/15 01:18:56;;;;;;;55.22;35.10;;;19.10;99.90;;;;;;5024547;28;20045;-53
2021/07/15 01:21:46;;;;;;;55.88;35.22;;;19.10;99.90;;;;;;5013454;28;20052;-54
2021/07/15 01:24:33;;;;;;;53.90;33.92;;;19.10;99.90;;;;;;5013916;28;20471;-54
2021/07/15 01:27:11;;;;;;;48.72;32.30;;;19.10;99.90;;;;;;5009610;28;20041;-54
2021/07/15 01:30:09;;;;;;;61.92;35.42;;;19.00;99.90;;;;;;5014802;28;20477;-53
2021/07/15 01:32:57;;;;;;;52.70;32.92;;;19.00;99.90;;;;;;5012497;28;20510;-52
2021/07/15 01:35:29;;;;;;;51.05;32.08;;;19.10;99.90;;;;;;5020428;28;20046;-53
2021/07/15 01:38:00;;;;;;;65.78;35.35;;;19.00;99.90;;;;;;5012311;28;20041;-55
2021/07/15 01:40:35;;;;;;;52.13;31.88;;;19.10;99.90;;;;;;5003835;28;20417;-53
2021/07/15 01:43:05;;;;;;;56.25;33.67;;;19.00;99.90;;;;;;5011919;28;20060;-54
2021/07/15 01:45:31;;;;;;;50.80;30.35;;;19.00;99.90;;;;;;5009967;28;20511;-54
2021/07/15 01:47:57;;;;;;;53.78;31.10;;;19.10;99.90;;;;;;5010932;28;20037;-54
2021/07/15 01:50:23;;;;;;;44.45;28.98;;;19.10;99.90;;;;;;5003531;28;20046;-55
2021/07/15 01:52:51;;;;;;;48.30;30.02;;;19.10;99.90;;;;;;5001802;28;20461;-54
2021/07/15 01:55:17;;;;;;;55.13;30.27;;;19.20;99.90;;;;;;5000492;28;20039;-54
2021/07/15 01:57:47;;;;;;;59.08;31.17;;;19.10;99.90;;;;;;5015840;28;20117;-55
2021/07/15 02:00:14;;;;;;;47.15;28.30;;;19.10;99.90;;;;;;4990154;28;20060;-54
2021/07/15 02:02:41;;;;;;;43.63;27.70;;;19.10;99.90;;;;;;5006370;28;20050;-55
2021/07/15 02:05:10;;;;;;;44.35;27.27;;;19.10;99.90;;;;;;5007277;28;20046;-54
2021/07/15 02:07:38;;;;;;;46.47;26.77;;;19.00;99.90;;;;;;5010500;28;20046;-52
2021/07/15 02:10:08;;;;;;;40.05;26.02;;;19.10;99.90;;;;;;5000336;28;20327;-53
2021/07/15 02:12:38;;;;;;;41.88;25.83;;;19.00;99.90;;;;;;5008005;28;20050;-54
2021/07/15 02:15:05;;;;;;;49.15;26.42;;;19.10;99.90;;;;;;4999181;28;20046;-54
2021/07/15 02:17:35;;;;;;;40.58;27.35;;;19.00;99.90;;;;;;5006612;28;20053;-55
2021/07/15 02:20:03;;;;;;;48.83;28.38;;;19.10;99.90;;;;;;5004422;28;20050;-54
2021/07/15 02:22:29;;;;;;;46.92;28.23;;;19.10;99.90;;;;;;5004002;28;20050;-54
2021/07/15 02:24:55;;;;;;;49.00;28.38;;;19.00;99.90;;;;;;5005322;28;20046;-54
2021/07/15 02:27:21;;;;;;;42.97;26.48;;;19.00;99.90;;;;;;5006038;28;20049;-53
2021/07/15 02:29:47;;;;;;;50.95;29.05;;;18.90;99.90;;;;;;5013688;28;20056;-54
2021/07/15 02:32:13;;;;;;;48.63;27.70;;;19.10;99.90;;;;;;5011818;28;20133;-55
2021/07/15 02:34:51;;;;;;;47.13;28.20;;;19.10;99.90;;;;;;5027808;28;20057;-53
2021/07/15 02:37:22;;;;;;;46.75;27.50;;;19.00;99.90;;;;;;5024760;28;20041;-55
2021/07/15 02:39:48;;;;;;;;;;;19.10;99.90;;;;;;5007229;28;20426;-53
2021/07/15 02:42:14;;;;;;;45.95;27.95;;;19.00;99.90;;;;;;5017045;28;19922;-54
2021/07/15 02:44:42;;;;;;;44.65;25.80;;;19.00;99.90;;;;;;5011780;28;20558;-55
2021/07/15 02:47:09;;;;;;;46.25;27.80;;;19.00;99.90;;;;;;5014469;28;20050;-55
2021/07/15 02:49:40;;;;;;;46.42;27.92;;;19.00;99.90;;;;;;5011225;28;20461;-55
2021/07/15 02:52:07;;;;;;;53.15;29.48;;;19.10;99.90;;;;;;5017416;28;20600;-55
2021/07/15 02:54:35;;;;;;;49.50;27.48;;;19.10;99.90;;;;;;5001660;28;20114;-55
2021/07/15 02:57:14;;;;;;;48.03;28.05;;;19.00;99.90;;;;;;5000144;28;20050;-55
2021/07/15 02:59:46;;;;;;;53.15;28.85;;;19.10;99.90;;;;;;5000316;28;20030;-56
2021/07/15 03:02:22;;;;;;;57.53;29.20;;;19.00;99.90;;;;;;5008293;28;20045;-55
2021/07/15 03:05:01;;;;;;;56.80;30.42;;;19.00;99.90;;;;;;5000613;28;20076;-55
2021/07/15 03:07:29;;;;;;;53.95;29.35;;;19.00;99.90;;;;;;5006858;28;20042;-55
2021/07/15 03:09:55;;;;;;;54.78;30.00;;;19.00;99.90;;;;;;5012884;28;20125;-55
2021/07/15 03:12:24;;;;;;;58.70;31.40;;;19.00;99.90;;;;;;5008113;28;20579;-55
2021/07/15 03:14:53;;;;;;;58.58;29.92;;;19.00;99.90;;;;;;5005703;28;20144;-54
2021/07/15 03:17:34;;;;;;;66.03;31.95;;;19.10;99.90;;;;;;4996723;28;20049;-54
2021/07/15 03:20:07;;;;;;;58.28;31.73;;;19.00;99.90;;;;;;5012540;28;20109;-56
2021/07/15 03:22:35;;;;;;;66.03;31.50;;;19.00;99.90;;;;;;4997740;28;20495;-56
2021/07/15 03:25:07;;;;;;;64.25;32.00;;;19.00;99.90;;;;;;5011979;28;20097;-56
2021/07/15 03:27:35;;;;;;;51.75;29.00;;;18.90;99.90;;;;;;4998855;28;20495;-55
2021/07/15 03:30:05;;;;;;;65.80;31.90;;;18.90;99.90;;;;;;5011701;28;20034;-54
2021/07/15 03:32:31;;;;;;;67.28;30.63;;;18.90;99.90;;;;;;5011756;28;20049;-56
2021/07/15 03:34:57;;;;;;;57.90;28.67;;;19.00;99.90;;;;;;4993690;28;20105;-54
2021/07/15 03:37:24;;;;;;;65.18;30.10;;;18.90;99.90;;;;;;4989037;28;20450;-54
2021/07/15 03:39:51;;;;;;;55.50;29.50;;;18.90;99.90;;;;;;5007359;28;20038;-53
2021/07/15 03:42:19;;;;;;;70.18;30.15;;;19.00;99.90;;;;;;5003156;28;20136;-54
2021/07/15 03:44:49;;;;;;;57.13;28.98;;;18.90;99.90;;;;;;5006016;28;20046;-53
2021/07/15 03:47:16;;;;;;;62.60;28.85;;;19.00;99.90;;;;;;5003603;28;20037;-54
2021/07/15 03:49:48;;;;;;;55.00;28.65;;;18.90;99.90;;;;;;5001576;28;20085;-52
2021/07/15 03:52:15;;;;;;;50.13;26.77;;;18.80;99.90;;;;;;5012480;28;20048;-52
2021/07/15 03:54:44;;;;;;;60.40;29.25;;;18.90;99.90;;;;;;4997109;28;20784;-53
2021/07/15 03:57:11;;;;;;;54.42;27.35;;;18.80;99.90;;;;;;4995961;28;20526;-53
2021/07/15 03:59:43;;;;;;;68.15;29.50;;;18.80;99.90;;;;;;4996182;28;20422;-53
2021/07/15 04:02:10;;;;;;;52.83;25.00;;;18.80;99.90;;;;;;5021922;28;20069;-52
2021/07/15 04:04:41;;;;;;;56.10;27.58;;;18.90;99.90;;;;;;5012436;28;20570;-54
2021/07/15 04:07:08;;;;;;;58.47;27.85;;;18.90;99.90;;;;;;4994739;28;20046;-53
2021/07/15 04:09:36;;;;;;;66.50;27.95;;;18.90;99.90;;;;;;5001925;28;20050;-54
2021/07/15 04:12:05;;;;;;;64.68;30.42;;;18.80;99.90;;;;;;5005727;28;20510;-53
2021/07/15 04:14:38;;;;;;;60.70;28.17;;;18.70;99.90;;;;;;4993978;28;20446;-52
2021/07/15 04:17:07;;;;;;;62.67;28.08;;;18.80;99.90;;;;;;5013571;28;20057;-52
2021/07/15 04:19:37;;;;;;;58.35;26.80;;;18.90;99.90;;;;;;5003655;28;20115;-53
2021/07/15 04:22:05;;;;;;;52.38;25.70;;;18.90;99.90;;;;;;5002236;28;20091;-52
2021/07/15 04:24:33;;;;;;;59.53;28.08;;;18.80;99.90;;;;;;5013904;28;20418;-53
2021/07/15 04:27:00;;;;;;;65.78;27.35;;;19.00;99.90;;;;;;5012820;28;20494;-53
2021/07/15 04:29:28;;;;;;;57.50;26.25;;;18.90;99.90;;;;;;5016035;28;20053;-50
2021/07/15 04:32:33;;;;;;;56.53;26.00;;;18.90;99.90;;;;;;4994920;28;20468;-51
2021/07/15 04:34:59;;;;;;;51.38;25.65;;;18.90;99.90;;;;;;5013129;28;20049;-55
2021/07/15 04:37:25;;;;;;;54.25;24.55;;;19.10;99.90;;;;;;5016361;28;20050;-55
2021/07/15 04:39:53;;;;;;;54.90;26.60;;;19.00;99.60;;;;;;5013471;28;20124;-54
2021/07/15 04:42:21;;;;;;;56.72;27.15;;;18.90;99.90;;;;;;5013797;28;20049;-55
2021/07/15 04:44:49;;;;;;;52.30;25.58;;;18.90;99.90;;;;;;5027267;28;20064;-53
2021/07/15 04:47:20;;;;;;;50.60;26.77;;;18.80;99.90;;;;;;5016164;28;20042;-53
2021/07/15 04:49:47;;;;;;;65.20;28.17;;;19.00;99.90;;;;;;5004483;28;20068;-54
2021/07/15 04:52:13;;;;;;;60.35;25.80;;;18.90;99.90;;;;;;5017169;28;20037;-56
2021/07/15 04:54:39;;;;;;;46.65;24.15;;;19.00;99.80;;;;;;5012654;28;20104;-56
2021/07/15 04:57:09;;;;;;;54.95;26.17;;;18.80;99.90;;;;;;4997455;28;20060;-52
2021/07/15 04:59:37;;;;;;;45.85;23.15;;;19.00;99.70;;;;;;5005419;28;20410;-52
2021/07/15 05:02:04;;;;;;;47.70;23.88;;;18.90;99.90;;;;;;5030992;28;20045;-53
2021/07/15 05:04:30;;;;;;;46.45;23.77;;;19.00;99.70;;;;;;5024106;28;20053;-51
2021/07/15 05:06:56;;;;;;;46.28;25.02;;;18.90;99.70;;;;;;5012587;28;20414;-52
2021/07/15 05:09:22;;;;;;;46.03;22.13;;;18.80;99.90;;;;;;5007142;28;20052;-53
2021/07/15 05:11:49;;;;;;;49.45;24.52;;;18.80;99.90;;;;;;4995176;28;20060;-54
2021/07/15 05:14:15;;;;;;;44.60;23.70;;;18.80;99.90;;;;;;5014146;28;20462;-52
2021/07/15 05:16:41;;;;;;;41.30;22.05;;;18.70;99.90;;;;;;5014015;28;20085;-57
2021/07/15 05:19:07;;;;;;;45.53;22.48;;;18.80;99.90;;;;;;4998767;28;20053;-55
2021/07/15 05:21:33;;;;;;;31.38;18.10;;;18.80;99.90;;;;;;5021823;28;20042;-54
2021/07/15 05:23:58;;;;;;;39.63;21.73;;;18.70;99.90;;;;;;5012012;28;20129;-54
2021/07/15 05:26:25;;;;;;;34.55;19.15;;;18.70;99.90;;;;;;5010663;28;20046;-56
2021/07/15 05:28:54;;;;;;;35.50;19.77;;;18.70;99.90;;;;;;4978514;28;20498;-54
2021/07/15 05:31:21;;;;;;;33.22;18.30;;;18.70;99.90;;;;;;5014738;28;20033;-53
2021/07/15 05:33:47;;;;;;;38.92;21.63;;;18.70;99.90;;;;;;5002791;28;20700;-56
2021/07/15 05:36:14;;;;;;;39.78;21.85;;;18.70;99.90;;;;;;5013123;28;20454;-55
2021/07/15 05:38:42;;;;;;;53.28;24.20;;;18.70;99.90;;;;;;5012013;28;20038;-56
2021/07/15 05:41:10;;;;;;;44.33;23.23;;;18.70;99.90;;;;;;5011164;28;20046;-56
2021/07/15 05:43:37;;;;;;;47.38;24.05;;;18.60;99.90;;;;;;4992959;28;20054;-53
2021/07/15 05:46:04;;;;;;;44.55;21.40;;;18.60;99.90;;;;;;5012510;28;20571;-53
2021/07/15 05:48:30;;;;;;;43.22;21.02;;;18.70;99.90;;;;;;5009353;28;20042;-55
2021/07/15 05:50:56;;;;;;;37.65;21.25;;;18.80;99.90;;;;;;5019798;28;20104;-53
2021/07/15 05:53:22;;;;;;;38.85;19.05;;;18.80;99.90;;;;;;5005297;28;20136;-53
2021/07/15 05:55:48;;;;;;;40.05;21.23;;;18.70;99.90;;;;;;5025013;28;20505;-53
2021/07/15 05:58:16;;;;;;;42.90;22.50;;;18.60;99.90;;;;;;4974581;28;20057;-51
2021/07/15 06:00:42;;;;;;;45.75;23.13;;;18.60;99.90;;;;;;4996374;28;20133;-55
2021/07/15 06:03:07;;;;;;;43.30;22.30;;;18.60;99.90;;;;;;5013171;28;20511;-51
2021/07/15 06:05:34;;;;;;;50.60;22.35;;;18.60;99.90;;;;;;5017169;28;20056;-52
2021/07/15 06:08:01;;;;;;;49.35;24.38;;;18.60;99.90;;;;;;5013113;28;20486;-55
2021/07/15 06:10:27;;;;;;;52.75;24.30;;;18.50;99.90;;;;;;5012476;28;20108;-53
2021/07/15 06:12:54;;;;;;;59.88;25.77;;;18.70;99.90;;;;;;5012271;28;20037;-53
2021/07/15 06:15:21;;;;;;;52.03;23.30;;;18.70;99.90;;;;;;5013009;28;20578;-56
2021/07/15 06:17:47;;;;;;;56.75;25.17;;;18.70;99.90;;;;;;5013462;28;20050;-53
2021/07/15 06:20:14;;;;;;;58.47;25.73;;;18.80;99.60;;;;;;5011630;28;20471;-54
2021/07/15 06:22:44;;;;;;;61.40;25.10;;;18.70;99.90;;;;;;5023831;28;20087;-54
2021/07/15 06:25:11;;;;;;;61.05;24.83;;;18.70;99.90;;;;;;5030454;28;20046;-54
2021/07/15 06:27:39;;;;;;;48.00;23.67;;;18.70;99.90;;;;;;5019307;28;20120;-52
2021/07/15 06:30:11;;;;;;;57.45;26.27;;;18.60;99.90;;;;;;4985147;28;20042;-53
2021/07/15 06:32:37;;;;;;;52.42;23.52;;;18.60;99.90;;;;;;5011518;28;20169;-54
2021/07/15 06:35:05;;;;;;;49.28;23.15;;;18.60;99.90;;;;;;5006869;28;20124;-55
2021/07/15 06:37:40;;;;;;;53.38;22.45;;;18.50;99.90;;;;;;5013767;28;20042;-54
2021/07/15 06:40:09;;;;;;;52.83;22.45;;;18.50;99.90;;;;;;5012358;28;20485;-52
2021/07/15 06:42:37;;;;;;;45.72;21.67;;;18.60;99.90;;;;;;5011864;28;20577;-52
2021/07/15 06:45:08;;;;;;;41.85;20.65;;;18.60;99.90;;;;;;5010853;28;20041;-51
2021/07/15 06:47:35;;;;;;;39.72;21.35;;;18.50;99.90;;;;;;5012253;28;20506;-54
2021/07/15 06:50:06;;;;;;;38.88;20.65;;;18.50;99.90;;;;;;5012829;28;20037;-55
2021/07/15 06:52:32;;;;;;;40.92;18.45;;;18.60;99.90;;;;;;5012942;28;20053;-56
2021/07/15 06:55:00;;;;;;;41.58;20.75;;;18.60;99.90;;;;;;4994239;28;20050;-56
2021/07/15 06:57:26;;;;;;;38.20;20.45;;;18.60;99.90;;;;;;5013033;28;20046;-56
2021/07/15 06:59:52;;;;;;;35.85;18.33;;;18.50;99.90;;;;;;5011356;28;20068;-56
2021/07/15 07:02:17;;;;;;;39.53;18.67;;;18.50;99.90;;;;;;5013263;28;20406;-56
2021/07/15 07:04:43;;;;;;;46.30;20.90;;;18.50;99.90;;;;;;5016091;28;20048;-55
2021/07/15 07:07:09;;;;;;;51.03;20.52;;;18.50;99.90;;;;;;5013982;28;20069;-55
2021/07/15 07:09:35;;;;;;;45.33;21.23;;;18.70;99.90;;;;;;5012190;28;20466;-55
2021/07/15 07:12:05;;;;;;;47.00;21.83;;;18.60;99.90;;;;;;4990885;28;20152;-54
2021/07/15 07:14:32;;;;;;;49.10;20.92;;;18.70;99.90;;;;;;5010650;28;20034;-54
2021/07/15 07:16:57;;;;;;;42.97;21.20;;;18.70;99.90;;;;;;5011936;28;20038;-55
2021/07/15 07:19:23;;;;;;;45.47;21.45;;;18.60;99.90;;;;;;5013724;28;20124;-55
2021/07/15 07:21:49;;;;;;;42.80;21.27;;;18.50;99.90;;;;;;5015895;28;20132;-53
2021/07/15 07:24:14;;;;;;;44.67;20.90;;;18.50;99.90;;;;;;5015320;28;20581;-51
2021/07/15 07:26:40;;;;;;;42.15;20.67;;;18.50;99.90;;;;;;5000802;28;20092;-56
2021/07/15 07:29:06;;;;;;;41.40;19.73;;;18.60;99.90;;;;;;5020300;28;20045;-55
2021/07/15 07:31:32;;;;;;;40.67;20.17;;;18.60;99.90;;;;;;5015628;28;20148;-53
2021/07/15 07:33:58;;;;;;;39.88;20.25;;;18.70;99.90;;;;;;5009589;28;20099;-55
2021/07/15 07:36:24;;;;;;;38.92;19.48;;;18.60;99.90;;;;;;5020105;28;20046;-53
2021/07/15 07:38:51;;;;;;;35.00;18.42;;;18.60;99.90;;;;;;5019732;28;20046;-53
2021/07/15 07:41:16;;;;;;;43.15;19.17;;;18.70;99.90;;;;;;5020153;28;20094;-56
2021/07/15 07:43:42;;;;;;;40.25;19.17;;;18.70;99.90;;;;;;5026377;28;20037;-57
2021/07/15 07:46:08;;;;;;;41.03;18.92;;;18.60;99.90;;;;;;5026006;28;20076;-56
2021/07/15 07:48:35;;;;;;;41.38;19.33;;;18.60;99.90;;;;;;5019858;28;20045;-56
2021/07/15 07:51:01;;;;;;;37.40;18.23;;;18.60;99.90;;;;;;5025275;28;20124;-56
2021/07/15 07:53:28;;;;;;;35.90;17.85;;;18.70;99.90;;;;;;5025708;28;20500;-56
2021/07/15 07:55:55;;;;;;;28.42;14.43;;;18.60;99.90;;;;;;5021538;28;20120;-53
2021/07/15 07:58:22;;;;;;;32.78;16.33;;;18.60;99.90;;;;;;5006133;28;20470;-56
2021/07/15 08:00:49;;;;;;;36.80;16.98;;;18.60;99.90;;;;;;5015421;28;20033;-56
2021/07/15 08:03:17;;;;;;;28.23;15.98;;;18.60;99.90;;;;;;5024383;28;20095;-54
2021/07/15 08:05:47;;;;;;;30.90;13.20;;;18.70;99.90;;;;;;5020613;28;20095;-56
2021/07/15 08:08:14;;;;;;;22.05;12.68;;;18.90;99.40;;;;;;5027815;28;20525;-56
2021/07/15 08:10:40;;;;;;;21.38;12.77;;;18.80;99.30;;;;;;5022188;28;20116;-56
2021/07/15 08:13:06;;;;;;;28.70;13.60;;;18.70;99.70;;;;;;5024296;28;20128;-54
2021/07/15 08:15:31;;;;;;;24.23;13.02;;;18.70;99.80;;;;;;5024466;28;20048;-54
2021/07/15 08:17:57;;;;;;;29.20;13.98;;;18.70;99.90;;;;;;5023497;28;20135;-53
2021/07/15 08:20:23;;;;;;;27.58;14.25;;;18.60;99.90;;;;;;5025362;28;20132;-55
2021/07/15 08:22:49;;;;;;;30.48;13.70;;;18.60;99.90;;;;;;5019332;28;20042;-55
2021/07/15 08:25:19;;;;;;;27.05;13.77;;;18.60;99.90;;;;;;5025358;28;20609;-55
2021/07/15 08:27:46;;;;;;;29.92;14.45;;;18.60;99.90;;;;;;5021121;28;20034;-56
2021/07/15 08:30:12;;;;;;;22.70;13.15;;;18.60;99.90;;;;;;5026602;28;20045;-55
2021/07/15 08:32:39;;;;;;;23.38;12.48;;;18.50;99.90;;;;;;5020151;28;20037;-55
2021/07/15 08:35:06;;;;;;;25.38;13.40;;;18.60;99.90;;;;;;5012629;28;20041;-53
2021/07/15 08:37:32;;;;;;;18.98;10.93;;;18.60;99.90;;;;;;5025069;28;20050;-55
2021/07/15 08:39:59;;;;;;;28.85;13.18;;;18.50;99.90;;;;;;5024149;28;20052;-53
2021/07/15 08:42:26;;;;;;;26.42;12.68;;;18.60;99.90;;;;;;4990682;28;20042;-52
2021/07/15 08:44:53;;;;;;;25.30;14.23;;;18.60;99.90;;;;;;5023608;28;20049;-54
2021/07/15 08:47:20;;;;;;;24.75;12.80;;;18.60;99.90;;;;;;5023570;28;20034;-51
2021/07/15 08:49:49;;;;;;;21.75;11.05;;;18.60;99.90;;;;;;5012898;28;20058;-55
2021/07/15 08:52:15;;;;;;;18.33;10.82;;;18.70;99.90;;;;;;5028083;28;20046;-55
2021/07/15 08:57:28;;;;;;;18.42;10.32;;;18.80;99.90;;;;;;5020432;28;20556;-54
2021/07/15 08:59:53;;;;;;;17.38;9.55;;;18.80;99.30;;;;;;5018280;28;20046;-54
2021/07/15 09:02:21;;;;;;;17.35;10.52;;;18.70;99.60;;;;;;5009030;28;20599;-55
2021/07/15 09:04:47;;;;;;;15.25;8.93;;;18.60;99.80;;;;;;5009952;28;20133;-55
2021/07/15 09:07:14;;;;;;;11.55;8.02;;;18.50;99.90;;;;;;5020613;28;20096;-53
2021/07/15 09:09:40;;;;;;;15.52;9.02;;;18.60;99.70;;;;;;5007833;28;20091;-54
2021/07/15 09:12:06;;;;;;;16.00;9.68;;;18.50;99.90;;;;;;5014545;28;20041;-53
2021/07/15 09:14:53;;;;;;;16.30;10.18;;;18.40;99.90;;;;;;5020326;28;20046;-53
2021/07/15 09:17:27;;;;;;;15.63;10.52;;;18.40;99.90;;;;;;5015942;28;20100;-50
2021/07/15 09:19:53;;;;;;;18.70;10.63;;;18.50;99.90;;;;;;5025285;28;20122;-52
2021/07/15 09:22:19;;;;;;;19.50;11.55;;;18.50;99.90;;;;;;5019903;28;20065;-55
2021/07/15 09:24:46;;;;;;;17.50;11.95;;;18.50;99.90;;;;;;5022522;28;20049;-53
2021/07/15 09:27:15;;;;;;;26.20;13.60;;;18.60;99.40;;;;;;5028490;28;20041;-54
2021/07/15 09:29:41;;;;;;;21.48;13.57;;;18.50;99.80;;;;;;5017782;28;20045;-56
2021/07/15 09:32:07;;;;;;;26.20;15.70;;;18.50;99.90;;;;;;5029357;28;20038;-52
2021/07/15 09:34:35;;;;;;;30.17;16.95;;;18.50;99.90;;;;;;5030950;28;20088;-55
2021/07/15 09:37:16;;;;;;;24.42;15.23;;;18.40;99.90;;;;;;5026413;28;20057;-55
2021/07/15 09:39:47;;;;;;;33.20;16.58;;;18.50;99.90;;;;;;5027025;28;20076;-55
2021/07/15 09:42:18;;;;;;;32.15;16.92;;;18.60;99.90;;;;;;5028708;28;20033;-55
2021/07/15 09:44:51;;;;;;;25.88;13.68;;;18.60;99.90;;;;;;5016056;28;20072;-56
2021/07/15 09:47:44;;;;;;;24.60;14.13;;;18.70;99.60;;;;;;5031545;28;20529;-55
2021/07/15 09:50:16;;;;;;;20.25;12.77;;;18.70;99.60;;;;;;5023052;28;20051;-56
2021/07/15 09:52:43;;;;;;;21.88;13.45;;;18.50;99.60;;;;;;5025684;28;20050;-55
2021/07/15 09:55:26;;;;;;;22.02;13.02;;;18.50;99.70;;;;;;5007373;28;20070;-51
2021/07/15 09:58:06;;;;;;;21.73;13.13;;;18.40;99.90;;;;;;5029203;28;20536;-52
2021/07/15 10:00:35;;;;;;;22.75;14.43;;;18.40;99.90;;;;;;5026022;28;20045;-56
2021/07/15 10:03:04;;;;;;;29.00;14.55;;;18.50;99.60;;;;;;5006540;28;20057;-56
2021/07/15 10:05:30;;;;;;;23.77;14.45;;;18.40;99.90;;;;;;5008765;28;20110;-56
2021/07/15 10:08:04;;;;;;;25.52;15.27;;;18.50;99.90;;;;;;5016701;28;20037;-56
2021/07/15 10:10:30;;;;;;;24.27;13.02;;;18.40;99.90;;;;;;5007959;28;20049;-55
2021/07/15 10:13:10;;;;;;;24.90;13.07;;;18.40;99.90;;;;;;5009931;28;20034;-56
2021/07/15 10:15:36;;;;;;;26.73;14.38;;;18.40;99.90;;;;;;4991002;28;20046;-56
2021/07/15 10:18:03;;;;;;;22.92;13.85;;;18.50;99.90;;;;;;5011226;28;20478;-55
2021/07/15 10:20:30;;;;;;;16.67;10.70;;;18.40;99.90;;;;;;4992854;28;20525;-56
2021/07/15 10:22:56;;;;;;;14.07;9.30;;;18.50;99.80;;;;;;5009851;28;20124;-56
2021/07/15 10:25:22;;;;;;;22.08;10.73;;;18.70;98.80;;;;;;5016429;28;20041;-56
2021/07/15 10:27:49;;;;;;;18.42;10.10;;;18.60;99.30;;;;;;5014725;28;20050;-56
2021/07/15 10:30:16;;;;;;;14.80;8.60;;;18.50;99.50;;;;;;5006596;28;20042;-56
2021/07/15 10:32:42;;;;;;;13.68;7.75;;;18.50;99.50;;;;;;5005125;28;20121;-56
2021/07/15 10:35:12;;;;;;;15.35;9.52;;;18.60;99.20;;;;;;5011710;28;20263;-55
2021/07/15 10:37:47;;;;;;;17.67;9.25;;;18.60;99.20;;;;;;5016074;28;20043;-55
2021/07/15 10:40:16;;;;;;;18.30;10.05;;;18.70;99.10;;;;;;4987907;28;20045;-56
2021/07/15 10:42:42;;;;;;;18.67;10.35;;;18.60;99.30;;;;;;5011692;28;20065;-52
2021/07/15 10:45:10;;;;;;;19.80;11.13;;;18.50;99.80;;;;;;5005868;28;20052;-53
2021/07/15 10:47:37;;;;;;;13.77;10.57;;;18.70;99.40;;;;;;5014256;28;20045;-55
2021/07/15 10:50:06;;;;;;;22.80;11.15;;;18.60;99.70;;;;;;4979718;28;20041;-52
2021/07/15 10:52:34;;;;;;;15.25;11.02;;;18.50;99.90;;;;;;5011939;28;20116;-52
2021/07/15 10:55:04;;;;;;;15.43;10.23;;;18.50;99.70;;;;;;5011487;28;20088;-54
2021/07/15 10:57:31;;;;;;;19.58;11.15;;;18.60;99.80;;;;;;5016042;28;20053;-54
2021/07/15 11:00:25;;;;;;;18.77;10.68;;;18.60;99.60;;;;;;5014273;28;20050;-55
2021/07/15 11:03:25;;;;;;;18.77;10.65;;;18.70;99.10;;;;;;5006366;28;20057;-54
2021/07/15 11:05:56;;;;;;;17.25;10.25;;;18.60;99.40;;;;;;5001394;28;20140;-55
2021/07/15 11:08:43;;;;;;;22.50;12.63;;;18.60;99.10;;;;;;5023189;28;20133;-54
2021/07/15 11:11:09;;;;;;;18.88;12.25;;;18.70;98.70;;;;;;5023531;28;20560;-54
2021/07/15 11:13:35;;;;;;;20.48;12.23;;;18.80;98.50;;;;;;5011462;28;20046;-55
2021/07/15 11:16:04;;;;;;;27.33;13.18;;;18.70;98.70;;;;;;5012441;28;20119;-53
2021/07/15 11:18:59;;;;;;;24.38;13.55;;;18.70;98.70;;;;;;5007173;28;20048;-56
2021/07/15 11:21:25;;;;;;;23.58;13.75;;;18.70;99.00;;;;;;5010678;28;20041;-52
2021/07/15 11:24:03;;;;;;;23.73;14.32;;;18.70;98.90;;;;;;5015068;28;20079;-55
2021/07/15 11:26:35;;;;;;;28.35;14.38;;;18.80;99.20;;;;;;4999254;28;20085;-54
2021/07/15 11:29:01;;;;;;;;;;;18.70;99.20;;;;;;4999012;28;20038;-51
2021/07/15 11:31:45;;;;;;;24.98;13.27;;;18.80;99.30;;;;;;5024592;28;20382;-56
2021/07/15 11:34:43;;;;;;;26.13;12.73;;;18.80;98.80;;;;;;5016426;28;20076;-55
2021/07/15 11:37:31;;;;;;;24.38;13.52;;;19.00;97.80;;;;;;5015604;28;20593;-50
2021/07/15 11:39:58;;;;;;;23.95;13.07;;;18.80;98.60;;;;;;5012672;28;20057;-56
2021/07/15 11:42:26;;;;;;;30.58;14.10;;;18.70;98.60;;;;;;5019599;28;20088;-55
2021/07/15 11:45:13;;;;;;;22.50;11.48;;;18.60;98.80;;;;;;5011936;28;20069;-54
2021/07/15 11:47:43;;;;;;;30.45;13.93;;;18.70;98.60;;;;;;5014016;28;20553;-54
2021/07/15 11:50:30;;;;;;;26.90;13.27;;;18.70;98.60;;;;;;5017948;28;20500;-53
2021/07/15 11:53:18;;;;;;;30.98;13.75;;;18.70;98.70;;;;;;5018703;28;20484;-54
2021/07/15 11:55:46;;;;;;;31.35;13.88;;;18.80;98.30;;;;;;5021860;28;20065;-57
2021/07/15 11:58:46;;;;;;;22.30;12.68;;;18.80;97.90;;;;;;5022238;28;20053;-53
2021/07/15 12:01:17;;;;;;;20.25;12.45;;;18.60;98.00;;;;;;5020016;28;20044;-52
2021/07/15 12:04:09;;;;;;;27.20;13.57;;;18.60;98.60;;;;;;4991070;28;20046;-55
2021/07/15 12:06:42;;;;;;;25.17;12.40;;;18.50;98.50;;;;;;5016526;28;20042;-54
2021/07/15 12:09:13;;;;;;;23.85;13.23;;;18.70;98.20;;;;;;5012335;28;20038;-55
2021/07/15 12:11:41;;;;;;;26.45;14.25;;;18.80;97.80;;;;;;4989232;28;20044;-55
2021/07/15 12:14:08;;;;;;;28.33;14.60;;;18.70;98.10;;;;;;5010685;28;20045;-55
2021/07/15 12:16:40;;;;;;;24.50;13.35;;;18.70;98.30;;;;;;5015541;28;20491;-54
2021/07/15 12:19:08;;;;;;;25.40;13.13;;;18.60;98.50;;;;;;5012871;28;20104;-55
2021/07/15 12:21:36;;;;;;;30.10;15.52;;;18.70;98.30;;;;;;5013374;28;20048;-52
2021/07/15 12:24:16;;;;;;;29.42;14.45;;;18.70;98.50;;;;;;5013675;28;20137;-55
2021/07/15 12:26:43;;;;;;;27.35;13.90;;;18.80;98.00;;;;;;5016004;28;20042;-52
2021/07/15 12:29:14;;;;;;;25.80;14.07;;;18.80;98.30;;;;;;5021491;28;20513;-58
2021/07/15 12:31:42;;;;;;;28.13;15.20;;;18.90;98.00;;;;;;5010333;28;20083;-57
2021/07/15 12:34:13;;;;;;;30.65;15.13;;;18.80;98.10;;;;;;5026459;28;20038;-57
2021/07/15 12:36:41;;;;;;;30.02;15.30;;;19.00;97.30;;;;;;4995172;28;20048;-57
2021/07/15 12:39:11;;;;;;;24.42;14.23;;;18.80;97.80;;;;;;4991892;28;20046;-56
2021/07/15 12:41:39;;;;;;;28.05;14.50;;;18.80;98.00;;;;;;4997603;28;20033;-58
2021/07/15 12:44:14;;;;;;;25.92;14.23;;;18.80;97.50;;;;;;5015737;28;20037;-56